Terminal Aerodrome Forecast
Issued by NWS Portland, OR

Home | Current Version | Previous Version | Text Only | Print | Product List | Glossary On
Versions: 1 2 3 4 5 6 7 8 9 10 11 12 13 14 15 16 17 18 19 20 21 22 23 24 25 26 27 28 29 30
000
FTUS46 KPQR 201139
TAFSLE
TAF
KSLE 201139Z 2012/2112 29010KT P6SM BKN070
     FM201500 24004KT P6SM VCSH SCT025 OVC040
     FM202100 32011KT P6SM BKN040
     FM210400 29007KT P6SM BKN045=

USA.gov is the U.S. government's official web portal to all federal, state and local government web resources and services.